sensor_id;sensor_type;location;lat;lon;timestamp;P1;durP1;ratioP1;P2;durP2;ratioP2
10005;SDS011;5042;42.626;23.382;2024-01-25T00:00:04;14.80;;;10.77;;
10005;SDS011;5042;42.626;23.382;2024-01-25T00:02:31;15.10;;;10.33;;
10005;SDS011;5042;42.626;23.382;2024-01-25T00:04:59;15.33;;;10.30;;
10005;SDS011;5042;42.626;23.382;2024-01-25T00:07:26;13.07;;;10.07;;
10005;SDS011;5042;42.626;23.382;2024-01-25T00:09:53;14.20;;;9.87;;
10005;SDS011;5042;42.626;23.382;2024-01-25T00:12:20;12.23;;;9.43;;
10005;SDS011;5042;42.626;23.382;2024-01-25T00:14:47;12.67;;;9.67;;
10005;SDS011;5042;42.626;23.382;2024-01-25T00:17:14;11.53;;;9.10;;
10005;SDS011;5042;42.626;23.382;2024-01-25T00:19:41;11.27;;;9.50;;
10005;SDS011;5042;42.626;23.382;2024-01-25T00:22:09;14.07;;;9.83;;
10005;SDS011;5042;42.626;23.382;2024-01-25T00:24:36;14.40;;;8.63;;
10005;SDS011;5042;42.626;23.382;2024-01-25T00:27:03;10.80;;;8.60;;
10005;SDS011;5042;42.626;23.382;2024-01-25T00:29:30;12.00;;;9.23;;
10005;SDS011;5042;42.626;23.382;2024-01-25T00:31:57;14.43;;;9.67;;
10005;SDS011;5042;42.626;23.382;2024-01-25T00:34:24;12.87;;;8.97;;
10005;SDS011;5042;42.626;23.382;2024-01-25T00:36:52;14.33;;;9.27;;
10005;SDS011;5042;42.626;23.382;2024-01-25T00:39:21;12.20;;;8.57;;
10005;SDS011;5042;42.626;23.382;2024-01-25T00:41:50;12.97;;;9.37;;
10005;SDS011;5042;42.626;23.382;2024-01-25T00:44:18;11.10;;;9.33;;
10005;SDS011;5042;42.626;23.382;2024-01-25T00:46:45;8.93;;;7.50;;
10005;SDS011;5042;42.626;23.382;2024-01-25T00:49:13;12.80;;;9.37;;
10005;SDS011;5042;42.626;23.382;2024-01-25T00:51:40;8.67;;;6.70;;
10005;SDS011;5042;42.626;23.382;2024-01-25T00:54:13;10.33;;;7.27;;
10005;SDS011;5042;42.626;23.382;2024-01-25T00:56:42;8.87;;;6.23;;
10005;SDS011;5042;42.626;23.382;2024-01-25T00:59:10;9.70;;;7.07;;
10005;SDS011;5042;42.626;23.382;2024-01-25T01:01:37;8.93;;;6.80;;
10005;SDS011;5042;42.626;23.382;2024-01-25T01:04:06;9.63;;;6.90;;
10005;SDS011;5042;42.626;23.382;2024-01-25T01:06:34;11.83;;;7.77;;
10005;SDS011;5042;42.626;23.382;2024-01-25T01:09:01;9.27;;;7.87;;
10005;SDS011;5042;42.626;23.382;2024-01-25T01:11:28;10.67;;;7.90;;
10005;SDS011;5042;42.626;23.382;2024-01-25T01:13:57;10.60;;;8.07;;
10005;SDS011;5042;42.626;23.382;2024-01-25T01:16:24;13.57;;;9.07;;
10005;SDS011;5042;42.626;23.382;2024-01-25T01:18:51;13.67;;;9.43;;
10005;SDS011;5042;42.626;23.382;2024-01-25T01:21:18;13.83;;;9.57;;
10005;SDS011;5042;42.626;23.382;2024-01-25T01:23:46;13.13;;;9.53;;
10005;SDS011;5042;42.626;23.382;2024-01-25T01:26:13;11.63;;;9.80;;
10005;SDS011;5042;42.626;23.382;2024-01-25T01:28:40;13.63;;;10.33;;
10005;SDS011;5042;42.626;23.382;2024-01-25T01:31:08;15.40;;;10.77;;
10005;SDS011;5042;42.626;23.382;2024-01-25T01:33:35;16.17;;;11.50;;
10005;SDS011;5042;42.626;23.382;2024-01-25T01:36:02;13.63;;;10.40;;
10005;SDS011;5042;42.626;23.382;2024-01-25T01:38:29;14.83;;;10.70;;
10005;SDS011;5042;42.626;23.382;2024-01-25T01:40:56;14.43;;;10.67;;
10005;SDS011;5042;42.626;23.382;2024-01-25T01:43:23;13.13;;;9.37;;
10005;SDS011;5042;42.626;23.382;2024-01-25T01:45:50;15.67;;;9.60;;
10005;SDS011;5042;42.626;23.382;2024-01-25T01:48:18;10.30;;;8.27;;
10005;SDS011;5042;42.626;23.382;2024-01-25T01:50:45;9.07;;;7.60;;
10005;SDS011;5042;42.626;23.382;2024-01-25T01:53:13;10.50;;;7.53;;
10005;SDS011;5042;42.626;23.382;2024-01-25T01:55:41;8.70;;;7.30;;
10005;SDS011;5042;42.626;23.382;2024-01-25T01:58:08;8.97;;;7.33;;
10005;SDS011;5042;42.626;23.382;2024-01-25T02:00:36;10.10;;;6.77;;
10005;SDS011;5042;42.626;23.382;2024-01-25T02:03:05;9.07;;;6.60;;
10005;SDS011;5042;42.626;23.382;2024-01-25T02:05:34;7.43;;;6.63;;
10005;SDS011;5042;42.626;23.382;2024-01-25T02:08:01;6.80;;;5.80;;
10005;SDS011;5042;42.626;23.382;2024-01-25T02:10:29;7.63;;;5.93;;
10005;SDS011;5042;42.626;23.382;2024-01-25T02:12:56;7.80;;;6.00;;
10005;SDS011;5042;42.626;23.382;2024-01-25T02:15:23;7.67;;;6.47;;
10005;SDS011;5042;42.626;23.382;2024-01-25T02:17:50;7.03;;;6.30;;
10005;SDS011;5042;42.626;23.382;2024-01-25T02:20:17;10.43;;;6.97;;
10005;SDS011;5042;42.626;23.382;2024-01-25T02:22:46;10.87;;;7.77;;
10005;SDS011;5042;42.626;23.382;2024-01-25T02:25:13;10.10;;;7.57;;
10005;SDS011;5042;42.626;23.382;2024-01-25T02:27:40;10.60;;;8.57;;
10005;SDS011;5042;42.626;23.382;2024-01-25T02:30:07;13.97;;;9.30;;
10005;SDS011;5042;42.626;23.382;2024-01-25T02:32:34;13.27;;;10.17;;
10005;SDS011;5042;42.626;23.382;2024-01-25T02:35:01;14.53;;;9.57;;
10005;SDS011;5042;42.626;23.382;2024-01-25T02:37:28;15.13;;;10.17;;
10005;SDS011;5042;42.626;23.382;2024-01-25T02:39:56;13.00;;;9.97;;
10005;SDS011;5042;42.626;23.382;2024-01-25T02:42:23;13.50;;;10.47;;
10005;SDS011;5042;42.626;23.382;2024-01-25T02:44:50;16.30;;;11.57;;
10005;SDS011;5042;42.626;23.382;2024-01-25T02:47:17;15.50;;;12.13;;
10005;SDS011;5042;42.626;23.382;2024-01-25T02:49:44;17.10;;;12.20;;
10005;SDS011;5042;42.626;23.382;2024-01-25T02:52:11;14.07;;;10.73;;
10005;SDS011;5042;42.626;23.382;2024-01-25T02:54:38;15.63;;;10.13;;
10005;SDS011;5042;42.626;23.382;2024-01-25T02:57:06;15.23;;;11.80;;
10005;SDS011;5042;42.626;23.382;2024-01-25T02:59:33;18.90;;;14.00;;
10005;SDS011;5042;42.626;23.382;2024-01-25T03:02:00;16.43;;;12.37;;
10005;SDS011;5042;42.626;23.382;2024-01-25T03:04:27;16.17;;;12.97;;
10005;SDS011;5042;42.626;23.382;2024-01-25T03:06:54;17.00;;;12.37;;
10005;SDS011;5042;42.626;23.382;2024-01-25T03:09:20;19.37;;;13.13;;
10005;SDS011;5042;42.626;23.382;2024-01-25T03:11:48;18.70;;;12.30;;
10005;SDS011;5042;42.626;23.382;2024-01-25T03:14:17;16.30;;;12.63;;
10005;SDS011;5042;42.626;23.382;2024-01-25T03:16:44;19.90;;;13.50;;
10005;SDS011;5042;42.626;23.382;2024-01-25T03:19:11;16.37;;;12.03;;
10005;SDS011;5042;42.626;23.382;2024-01-25T03:21:38;7.53;;;6.40;;
10005;SDS011;5042;42.626;23.382;2024-01-25T03:24:05;4.07;;;2.90;;
10005;SDS011;5042;42.626;23.382;2024-01-25T03:26:32;2.67;;;1.70;;
10005;SDS011;5042;42.626;23.382;2024-01-25T03:28:59;1.10;;;1.10;;
10005;SDS011;5042;42.626;23.382;2024-01-25T03:31:27;2.80;;;1.00;;
10005;SDS011;5042;42.626;23.382;2024-01-25T03:33:54;0.70;;;0.70;;
10005;SDS011;5042;42.626;23.382;2024-01-25T03:36:21;0.87;;;0.80;;
10005;SDS011;5042;42.626;23.382;2024-01-25T03:38:48;1.00;;;0.80;;
10005;SDS011;5042;42.626;23.382;2024-01-25T03:41:15;0.87;;;0.80;;
10005;SDS011;5042;42.626;23.382;2024-01-25T03:43:41;0.83;;;0.77;;
10005;SDS011;5042;42.626;23.382;2024-01-25T03:46:10;0.80;;;0.73;;
10005;SDS011;5042;42.626;23.382;2024-01-25T03:48:38;1.43;;;0.90;;
10005;SDS011;5042;42.626;23.382;2024-01-25T03:51:05;0.90;;;0.90;;
10005;SDS011;5042;42.626;23.382;2024-01-25T03:53:31;1.23;;;1.00;;
10005;SDS011;5042;42.626;23.382;2024-01-25T03:55:58;0.87;;;0.87;;
10005;SDS011;5042;42.626;23.382;2024-01-25T03:58:25;1.50;;;1.10;;
10005;SDS011;5042;42.626;23.382;2024-01-25T04:00:52;1.00;;;1.00;;
10005;SDS011;5042;42.626;23.382;2024-01-25T04:03:19;1.20;;;1.10;;
10005;SDS011;5042;42.626;23.382;2024-01-25T04:05:47;1.30;;;1.20;;
10005;SDS011;5042;42.626;23.382;2024-01-25T04:08:14;1.00;;;0.90;;
10005;SDS011;5042;42.626;23.382;2024-01-25T04:10:41;0.80;;;0.80;;
10005;SDS011;5042;42.626;23.382;2024-01-25T04:13:08;0.90;;;0.90;;
10005;SDS011;5042;42.626;23.382;2024-01-25T04:15:35;1.20;;;1.10;;
10005;SDS011;5042;42.626;23.382;2024-01-25T04:18:02;0.97;;;0.97;;
10005;SDS011;5042;42.626;23.382;2024-01-25T04:20:29;1.03;;;0.93;;
10005;SDS011;5042;42.626;23.382;2024-01-25T04:22:58;1.23;;;0.90;;
10005;SDS011;5042;42.626;23.382;2024-01-25T04:25:25;1.63;;;1.00;;
10005;SDS011;5042;42.626;23.382;2024-01-25T04:27:51;1.13;;;1.00;;
10005;SDS011;5042;42.626;23.382;2024-01-25T04:30:18;1.10;;;0.97;;
10005;SDS011;5042;42.626;23.382;2024-01-25T04:32:45;1.20;;;1.10;;
10005;SDS011;5042;42.626;23.382;2024-01-25T04:35:11;1.23;;;1.13;;
10005;SDS011;5042;42.626;23.382;2024-01-25T04:37:38;1.10;;;0.97;;
10005;SDS011;5042;42.626;23.382;2024-01-25T04:40:07;1.00;;;1.00;;
10005;SDS011;5042;42.626;23.382;2024-01-25T04:42:35;1.13;;;1.10;;
10005;SDS011;5042;42.626;23.382;2024-01-25T04:45:02;1.43;;;1.33;;
10005;SDS011;5042;42.626;23.382;2024-01-25T04:47:29;1.40;;;1.30;;
10005;SDS011;5042;42.626;23.382;2024-01-25T04:49:56;1.63;;;1.43;;
10005;SDS011;5042;42.626;23.382;2024-01-25T04:52:23;2.07;;;1.30;;
10005;SDS011;5042;42.626;23.382;2024-01-25T04:54:49;1.53;;;1.43;;
10005;SDS011;5042;42.626;23.382;2024-01-25T04:57:18;1.63;;;1.40;;
10005;SDS011;5042;42.626;23.382;2024-01-25T04:59:45;2.33;;;1.57;;
10005;SDS011;5042;42.626;23.382;2024-01-25T05:02:12;1.57;;;1.47;;
10005;SDS011;5042;42.626;23.382;2024-01-25T05:04:39;2.77;;;1.60;;
10005;SDS011;5042;42.626;23.382;2024-01-25T05:07:06;3.20;;;1.80;;
10005;SDS011;5042;42.626;23.382;2024-01-25T05:09:33;2.43;;;1.80;;
10005;SDS011;5042;42.626;23.382;2024-01-25T05:12:00;2.10;;;1.90;;
10005;SDS011;5042;42.626;23.382;2024-01-25T05:14:28;1.80;;;1.70;;
10005;SDS011;5042;42.626;23.382;2024-01-25T05:16:55;1.77;;;1.60;;
10005;SDS011;5042;42.626;23.382;2024-01-25T05:19:22;1.90;;;1.70;;
10005;SDS011;5042;42.626;23.382;2024-01-25T05:21:50;4.07;;;1.93;;
10005;SDS011;5042;42.626;23.382;2024-01-25T05:24:17;3.23;;;1.97;;
10005;SDS011;5042;42.626;23.382;2024-01-25T05:26:44;1.97;;;1.37;;
10005;SDS011;5042;42.626;23.382;2024-01-25T05:29:11;1.70;;;1.30;;
10005;SDS011;5042;42.626;23.382;2024-01-25T05:31:39;1.70;;;1.40;;
10005;SDS011;5042;42.626;23.382;2024-01-25T05:34:06;1.40;;;1.30;;
10005;SDS011;5042;42.626;23.382;2024-01-25T05:36:33;1.77;;;1.50;;
10005;SDS011;5042;42.626;23.382;2024-01-25T05:39:00;1.57;;;1.27;;
10005;SDS011;5042;42.626;23.382;2024-01-25T05:41:31;1.93;;;1.50;;
10005;SDS011;5042;42.626;23.382;2024-01-25T05:43:58;1.90;;;1.17;;
10005;SDS011;5042;42.626;23.382;2024-01-25T05:46:25;2.03;;;1.40;;
10005;SDS011;5042;42.626;23.382;2024-01-25T05:48:53;3.07;;;1.50;;
10005;SDS011;5042;42.626;23.382;2024-01-25T05:51:20;1.60;;;1.27;;
10005;SDS011;5042;42.626;23.382;2024-01-25T05:53:47;4.13;;;1.53;;
10005;SDS011;5042;42.626;23.382;2024-01-25T05:56:14;1.90;;;1.30;;
10005;SDS011;5042;42.626;23.382;2024-01-25T05:58:41;1.70;;;1.57;;
10005;SDS011;5042;42.626;23.382;2024-01-25T06:01:08;1.77;;;1.60;;
10005;SDS011;5042;42.626;23.382;2024-01-25T06:03:35;1.63;;;1.50;;
10005;SDS011;5042;42.626;23.382;2024-01-25T06:06:03;1.60;;;1.50;;
10005;SDS011;5042;42.626;23.382;2024-01-25T06:08:33;1.97;;;1.40;;
10005;SDS011;5042;42.626;23.382;2024-01-25T06:10:59;2.70;;;1.60;;
10005;SDS011;5042;42.626;23.382;2024-01-25T06:13:26;1.80;;;1.70;;
10005;SDS011;5042;42.626;23.382;2024-01-25T06:15:53;2.77;;;1.50;;
10005;SDS011;5042;42.626;23.382;2024-01-25T06:18:20;3.80;;;2.10;;
10005;SDS011;5042;42.626;23.382;2024-01-25T06:20:47;2.80;;;1.63;;
10005;SDS011;5042;42.626;23.382;2024-01-25T06:23:17;2.90;;;1.80;;
10005;SDS011;5042;42.626;23.382;2024-01-25T06:25:43;3.30;;;2.07;;
10005;SDS011;5042;42.626;23.382;2024-01-25T06:28:10;4.93;;;2.87;;
10005;SDS011;5042;42.626;23.382;2024-01-25T06:30:37;3.27;;;2.57;;
10005;SDS011;5042;42.626;23.382;2024-01-25T06:33:05;3.40;;;2.10;;
10005;SDS011;5042;42.626;23.382;2024-01-25T06:35:31;4.43;;;2.00;;
10005;SDS011;5042;42.626;23.382;2024-01-25T06:37:59;3.80;;;1.83;;
10005;SDS011;5042;42.626;23.382;2024-01-25T06:40:27;5.40;;;1.80;;
10005;SDS011;5042;42.626;23.382;2024-01-25T06:42:54;4.03;;;1.77;;
10005;SDS011;5042;42.626;23.382;2024-01-25T06:45:21;2.50;;;2.03;;
10005;SDS011;5042;42.626;23.382;2024-01-25T06:47:48;7.53;;;2.20;;
10005;SDS011;5042;42.626;23.382;2024-01-25T06:50:14;3.37;;;2.23;;
10005;SDS011;5042;42.626;23.382;2024-01-25T06:52:42;3.67;;;2.23;;
10005;SDS011;5042;42.626;23.382;2024-01-25T06:55:09;5.57;;;2.40;;
10005;SDS011;5042;42.626;23.382;2024-01-25T06:57:38;4.87;;;2.30;;
10005;SDS011;5042;42.626;23.382;2024-01-25T07:00:05;5.17;;;2.13;;
10005;SDS011;5042;42.626;23.382;2024-01-25T07:02:35;4.07;;;2.07;;
10005;SDS011;5042;42.626;23.382;2024-01-25T07:05:02;3.40;;;2.30;;
10005;SDS011;5042;42.626;23.382;2024-01-25T07:07:29;3.13;;;2.43;;
10005;SDS011;5042;42.626;23.382;2024-01-25T07:09:57;2.87;;;2.13;;
10005;SDS011;5042;42.626;23.382;2024-01-25T07:12:24;4.00;;;2.40;;
10005;SDS011;5042;42.626;23.382;2024-01-25T07:14:53;3.10;;;1.90;;
10005;SDS011;5042;42.626;23.382;2024-01-25T07:17:20;4.73;;;2.23;;
10005;SDS011;5042;42.626;23.382;2024-01-25T07:19:47;4.37;;;2.33;;
10005;SDS011;5042;42.626;23.382;2024-01-25T07:22:14;3.27;;;2.27;;
10005;SDS011;5042;42.626;23.382;2024-01-25T07:24:42;4.23;;;2.20;;
10005;SDS011;5042;42.626;23.382;2024-01-25T07:27:09;5.97;;;2.90;;
10005;SDS011;5042;42.626;23.382;2024-01-25T07:29:36;3.37;;;2.00;;
10005;SDS011;5042;42.626;23.382;2024-01-25T07:32:05;3.33;;;2.23;;
10005;SDS011;5042;42.626;23.382;2024-01-25T07:34:32;3.97;;;2.37;;
10005;SDS011;5042;42.626;23.382;2024-01-25T07:36:59;4.57;;;2.20;;
10005;SDS011;5042;42.626;23.382;2024-01-25T07:39:26;2.50;;;2.00;;
10005;SDS011;5042;42.626;23.382;2024-01-25T07:41:53;4.90;;;2.43;;
10005;SDS011;5042;42.626;23.382;2024-01-25T07:44:20;5.23;;;2.30;;
10005;SDS011;5042;42.626;23.382;2024-01-25T07:46:47;3.27;;;2.60;;
10005;SDS011;5042;42.626;23.382;2024-01-25T07:49:15;4.40;;;2.33;;
10005;SDS011;5042;42.626;23.382;2024-01-25T07:51:42;2.97;;;2.10;;
10005;SDS011;5042;42.626;23.382;2024-01-25T07:54:09;2.90;;;2.37;;
10005;SDS011;5042;42.626;23.382;2024-01-25T07:56:36;5.27;;;3.13;;
10005;SDS011;5042;42.626;23.382;2024-01-25T07:59:03;2.60;;;2.20;;
10005;SDS011;5042;42.626;23.382;2024-01-25T08:01:30;4.47;;;2.60;;
10005;SDS011;5042;42.626;23.382;2024-01-25T08:03:56;4.90;;;2.60;;
10005;SDS011;5042;42.626;23.382;2024-01-25T08:06:26;4.57;;;2.30;;
10005;SDS011;5042;42.626;23.382;2024-01-25T08:08:53;5.20;;;2.63;;
10005;SDS011;5042;42.626;23.382;2024-01-25T08:11:20;5.13;;;2.60;;
10005;SDS011;5042;42.626;23.382;2024-01-25T08:13:48;3.97;;;2.30;;
10005;SDS011;5042;42.626;23.382;2024-01-25T08:16:15;5.70;;;2.47;;
10005;SDS011;5042;42.626;23.382;2024-01-25T08:18:44;3.83;;;2.30;;
10005;SDS011;5042;42.626;23.382;2024-01-25T08:21:11;3.57;;;2.53;;
10005;SDS011;5042;42.626;23.382;2024-01-25T08:23:40;4.90;;;2.40;;
10005;SDS011;5042;42.626;23.382;2024-01-25T08:26:07;4.60;;;2.50;;
10005;SDS011;5042;42.626;23.382;2024-01-25T08:28:38;3.93;;;2.63;;
10005;SDS011;5042;42.626;23.382;2024-01-25T08:31:06;6.97;;;2.60;;
10005;SDS011;5042;42.626;23.382;2024-01-25T08:33:33;3.00;;;2.20;;
10005;SDS011;5042;42.626;23.382;2024-01-25T08:36:00;5.37;;;2.57;;
10005;SDS011;5042;42.626;23.382;2024-01-25T08:38:28;4.43;;;2.47;;
10005;SDS011;5042;42.626;23.382;2024-01-25T08:40:56;6.03;;;2.30;;
10005;SDS011;5042;42.626;23.382;2024-01-25T08:43:23;4.43;;;2.20;;
10005;SDS011;5042;42.626;23.382;2024-01-25T08:45:50;5.70;;;3.37;;
10005;SDS011;5042;42.626;23.382;2024-01-25T08:48:17;7.37;;;2.70;;
10005;SDS011;5042;42.626;23.382;2024-01-25T08:50:44;3.93;;;2.40;;
10005;SDS011;5042;42.626;23.382;2024-01-25T08:53:10;4.53;;;2.50;;
10005;SDS011;5042;42.626;23.382;2024-01-25T08:55:37;4.80;;;2.50;;
10005;SDS011;5042;42.626;23.382;2024-01-25T08:58:07;4.80;;;2.40;;
10005;SDS011;5042;42.626;23.382;2024-01-25T09:00:34;6.03;;;2.70;;
10005;SDS011;5042;42.626;23.382;2024-01-25T09:03:01;3.90;;;2.30;;
10005;SDS011;5042;42.626;23.382;2024-01-25T09:05:28;3.30;;;2.17;;
10005;SDS011;5042;42.626;23.382;2024-01-25T09:07:54;5.83;;;2.80;;
10005;SDS011;5042;42.626;23.382;2024-01-25T09:10:21;5.37;;;2.50;;
10005;SDS011;5042;42.626;23.382;2024-01-25T09:12:48;4.20;;;2.43;;
10005;SDS011;5042;42.626;23.382;2024-01-25T09:15:16;4.10;;;2.50;;
10005;SDS011;5042;42.626;23.382;2024-01-25T09:17:43;4.20;;;2.33;;
10005;SDS011;5042;42.626;23.382;2024-01-25T09:20:10;4.13;;;2.57;;
10005;SDS011;5042;42.626;23.382;2024-01-25T09:22:37;5.80;;;2.77;;
10005;SDS011;5042;42.626;23.382;2024-01-25T09:25:04;4.13;;;2.30;;
10005;SDS011;5042;42.626;23.382;2024-01-25T09:27:32;5.40;;;2.73;;
10005;SDS011;5042;42.626;23.382;2024-01-25T09:29:59;5.80;;;2.70;;
10005;SDS011;5042;42.626;23.382;2024-01-25T09:32:27;4.37;;;2.63;;
10005;SDS011;5042;42.626;23.382;2024-01-25T09:34:54;6.17;;;2.83;;
10005;SDS011;5042;42.626;23.382;2024-01-25T09:37:21;4.37;;;2.43;;
10005;SDS011;5042;42.626;23.382;2024-01-25T09:39:49;6.90;;;2.80;;
10005;SDS011;5042;42.626;23.382;2024-01-25T09:42:16;4.93;;;2.60;;
10005;SDS011;5042;42.626;23.382;2024-01-25T09:44:43;4.63;;;2.53;;
10005;SDS011;5042;42.626;23.382;2024-01-25T09:47:10;6.20;;;2.90;;
10005;SDS011;5042;42.626;23.382;2024-01-25T09:49:40;5.80;;;2.83;;
10005;SDS011;5042;42.626;23.382;2024-01-25T09:52:09;6.43;;;3.77;;
10005;SDS011;5042;42.626;23.382;2024-01-25T09:54:39;5.03;;;3.00;;
10005;SDS011;5042;42.626;23.382;2024-01-25T09:57:07;6.07;;;3.23;;
10005;SDS011;5042;42.626;23.382;2024-01-25T09:59:40;6.00;;;3.50;;
10005;SDS011;5042;42.626;23.382;2024-01-25T10:02:07;6.47;;;3.40;;
10005;SDS011;5042;42.626;23.382;2024-01-25T10:04:35;5.13;;;3.20;;
10005;SDS011;5042;42.626;23.382;2024-01-25T10:07:04;4.97;;;2.90;;
10005;SDS011;5042;42.626;23.382;2024-01-25T10:09:31;6.50;;;3.00;;
10005;SDS011;5042;42.626;23.382;2024-01-25T10:12:05;6.23;;;2.77;;
10005;SDS011;5042;42.626;23.382;2024-01-25T10:14:32;6.90;;;3.43;;
10005;SDS011;5042;42.626;23.382;2024-01-25T10:17:00;5.20;;;2.60;;
10005;SDS011;5042;42.626;23.382;2024-01-25T10:19:27;7.67;;;3.20;;
10005;SDS011;5042;42.626;23.382;2024-01-25T10:21:55;4.03;;;3.30;;
10005;SDS011;5042;42.626;23.382;2024-01-25T10:24:24;7.37;;;3.40;;
10005;SDS011;5042;42.626;23.382;2024-01-25T10:26:51;4.03;;;3.20;;
10005;SDS011;5042;42.626;23.382;2024-01-25T10:29:17;6.93;;;3.40;;
10005;SDS011;5042;42.626;23.382;2024-01-25T10:31:44;7.30;;;3.03;;
10005;SDS011;5042;42.626;23.382;2024-01-25T10:34:13;5.77;;;3.00;;
10005;SDS011;5042;42.626;23.382;2024-01-25T10:36:40;4.47;;;3.00;;
10005;SDS011;5042;42.626;23.382;2024-01-25T10:39:08;6.30;;;3.03;;
10005;SDS011;5042;42.626;23.382;2024-01-25T10:41:37;7.00;;;3.20;;
10005;SDS011;5042;42.626;23.382;2024-01-25T10:44:04;7.27;;;3.17;;
10005;SDS011;5042;42.626;23.382;2024-01-25T10:46:32;5.03;;;2.80;;
10005;SDS011;5042;42.626;23.382;2024-01-25T10:49:00;5.50;;;3.33;;
10005;SDS011;5042;42.626;23.382;2024-01-25T10:51:28;4.67;;;3.40;;
10005;SDS011;5042;42.626;23.382;2024-01-25T10:53:57;4.97;;;3.23;;
10005;SDS011;5042;42.626;23.382;2024-01-25T10:56:24;7.07;;;3.50;;
10005;SDS011;5042;42.626;23.382;2024-01-25T10:58:53;4.10;;;3.13;;
10005;SDS011;5042;42.626;23.382;2024-01-25T11:01:20;5.20;;;3.47;;
10005;SDS011;5042;42.626;23.382;2024-01-25T11:03:47;6.37;;;3.53;;
10005;SDS011;5042;42.626;23.382;2024-01-25T11:06:14;7.07;;;3.33;;
10005;SDS011;5042;42.626;23.382;2024-01-25T11:08:41;6.80;;;3.60;;
10005;SDS011;5042;42.626;23.382;2024-01-25T11:11:10;7.20;;;3.90;;
10005;SDS011;5042;42.626;23.382;2024-01-25T11:13:39;5.47;;;3.23;;
10005;SDS011;5042;42.626;23.382;2024-01-25T11:16:15;5.73;;;2.87;;
10005;SDS011;5042;42.626;23.382;2024-01-25T11:18:49;5.83;;;2.93;;
10005;SDS011;5042;42.626;23.382;2024-01-25T11:21:21;5.57;;;3.10;;
10005;SDS011;5042;42.626;23.382;2024-01-25T11:23:58;5.30;;;2.90;;
10005;SDS011;5042;42.626;23.382;2024-01-25T11:26:25;4.17;;;2.93;;
10005;SDS011;5042;42.626;23.382;2024-01-25T11:28:52;4.63;;;2.97;;
10005;SDS011;5042;42.626;23.382;2024-01-25T11:31:21;5.83;;;3.30;;
10005;SDS011;5042;42.626;23.382;2024-01-25T11:33:49;4.97;;;2.80;;
10005;SDS011;5042;42.626;23.382;2024-01-25T11:36:19;3.87;;;2.93;;
10005;SDS011;5042;42.626;23.382;2024-01-25T11:38:47;5.50;;;2.63;;
10005;SDS011;5042;42.626;23.382;2024-01-25T11:41:14;6.43;;;2.90;;
10005;SDS011;5042;42.626;23.382;2024-01-25T11:43:41;4.30;;;2.30;;
10005;SDS011;5042;42.626;23.382;2024-01-25T11:46:08;4.47;;;2.30;;
10005;SDS011;5042;42.626;23.382;2024-01-25T11:48:39;5.40;;;2.47;;
10005;SDS011;5042;42.626;23.382;2024-01-25T11:51:06;4.03;;;2.30;;
10005;SDS011;5042;42.626;23.382;2024-01-25T11:53:35;4.73;;;2.43;;
10005;SDS011;5042;42.626;23.382;2024-01-25T11:56:03;6.03;;;2.40;;
10005;SDS011;5042;42.626;23.382;2024-01-25T11:58:32;5.73;;;3.23;;
10005;SDS011;5042;42.626;23.382;2024-01-25T12:01:00;4.43;;;2.70;;
10005;SDS011;5042;42.626;23.382;2024-01-25T12:03:31;4.97;;;2.90;;
10005;SDS011;5042;42.626;23.382;2024-01-25T12:05:59;4.77;;;3.17;;
10005;SDS011;5042;42.626;23.382;2024-01-25T12:08:26;7.17;;;2.87;;
10005;SDS011;5042;42.626;23.382;2024-01-25T12:11:01;5.23;;;2.80;;
10005;SDS011;5042;42.626;23.382;2024-01-25T12:13:35;7.77;;;4.53;;
10005;SDS011;5042;42.626;23.382;2024-01-25T12:16:05;4.70;;;2.70;;
10005;SDS011;5042;42.626;23.382;2024-01-25T12:18:33;5.40;;;2.50;;
10005;SDS011;5042;42.626;23.382;2024-01-25T12:21:02;8.37;;;3.00;;
10005;SDS011;5042;42.626;23.382;2024-01-25T12:23:30;4.87;;;2.70;;
10005;SDS011;5042;42.626;23.382;2024-01-25T12:25:59;5.90;;;2.70;;
10005;SDS011;5042;42.626;23.382;2024-01-25T12:28:27;5.03;;;2.40;;
10005;SDS011;5042;42.626;23.382;2024-01-25T12:30:54;6.67;;;3.10;;
10005;SDS011;5042;42.626;23.382;2024-01-25T12:33:22;6.83;;;2.70;;
10005;SDS011;5042;42.626;23.382;2024-01-25T12:35:48;6.43;;;2.73;;
10005;SDS011;5042;42.626;23.382;2024-01-25T12:38:17;7.13;;;2.93;;
10005;SDS011;5042;42.626;23.382;2024-01-25T12:40:45;3.13;;;2.70;;
10005;SDS011;5042;42.626;23.382;2024-01-25T12:43:13;5.07;;;2.63;;
10005;SDS011;5042;42.626;23.382;2024-01-25T12:45:41;6.43;;;2.60;;
10005;SDS011;5042;42.626;23.382;2024-01-25T12:48:08;4.93;;;2.90;;
10005;SDS011;5042;42.626;23.382;2024-01-25T12:50:35;4.70;;;2.80;;
10005;SDS011;5042;42.626;23.382;2024-01-25T12:53:03;6.40;;;2.40;;
10005;SDS011;5042;42.626;23.382;2024-01-25T12:55:33;4.97;;;2.43;;
10005;SDS011;5042;42.626;23.382;2024-01-25T12:58:00;5.03;;;2.47;;
10005;SDS011;5042;42.626;23.382;2024-01-25T13:00:28;4.90;;;2.43;;
10005;SDS011;5042;42.626;23.382;2024-01-25T13:02:55;4.83;;;2.87;;
10005;SDS011;5042;42.626;23.382;2024-01-25T13:05:22;3.27;;;2.10;;
10005;SDS011;5042;42.626;23.382;2024-01-25T13:07:49;5.10;;;2.77;;
10005;SDS011;5042;42.626;23.382;2024-01-25T13:10:17;5.33;;;2.50;;
10005;SDS011;5042;42.626;23.382;2024-01-25T13:12:45;5.30;;;2.33;;
10005;SDS011;5042;42.626;23.382;2024-01-25T13:15:12;6.07;;;2.50;;
10005;SDS011;5042;42.626;23.382;2024-01-25T13:17:40;5.53;;;2.50;;
10005;SDS011;5042;42.626;23.382;2024-01-25T13:20:07;3.43;;;2.03;;
10005;SDS011;5042;42.626;23.382;2024-01-25T13:22:34;5.87;;;2.60;;
10005;SDS011;5042;42.626;23.382;2024-01-25T13:25:02;5.27;;;3.00;;
10005;SDS011;5042;42.626;23.382;2024-01-25T13:27:30;5.23;;;2.27;;
10005;SDS011;5042;42.626;23.382;2024-01-25T13:29:59;3.47;;;2.30;;
10005;SDS011;5042;42.626;23.382;2024-01-25T13:32:26;4.57;;;2.43;;
10005;SDS011;5042;42.626;23.382;2024-01-25T13:34:53;7.33;;;3.83;;
10005;SDS011;5042;42.626;23.382;2024-01-25T13:37:20;6.00;;;2.30;;
10005;SDS011;5042;42.626;23.382;2024-01-25T13:39:47;6.40;;;2.47;;
10005;SDS011;5042;42.626;23.382;2024-01-25T13:42:14;5.30;;;2.43;;
10005;SDS011;5042;42.626;23.382;2024-01-25T13:44:41;3.97;;;2.50;;
10005;SDS011;5042;42.626;23.382;2024-01-25T13:47:11;5.43;;;2.87;;
10005;SDS011;5042;42.626;23.382;2024-01-25T13:49:38;4.07;;;2.57;;
10005;SDS011;5042;42.626;23.382;2024-01-25T13:52:05;6.03;;;2.53;;
10005;SDS011;5042;42.626;23.382;2024-01-25T13:54:32;3.93;;;2.53;;
10005;SDS011;5042;42.626;23.382;2024-01-25T13:56:59;5.20;;;2.33;;
10005;SDS011;5042;42.626;23.382;2024-01-25T13:59:27;5.10;;;2.40;;
10005;SDS011;5042;42.626;23.382;2024-01-25T14:01:54;5.63;;;2.67;;
10005;SDS011;5042;42.626;23.382;2024-01-25T14:04:22;5.73;;;2.90;;
10005;SDS011;5042;42.626;23.382;2024-01-25T14:06:49;6.33;;;3.10;;
10005;SDS011;5042;42.626;23.382;2024-01-25T14:09:16;6.67;;;3.10;;
10005;SDS011;5042;42.626;23.382;2024-01-25T14:11:43;6.23;;;2.90;;
10005;SDS011;5042;42.626;23.382;2024-01-25T14:14:11;6.03;;;3.07;;
10005;SDS011;5042;42.626;23.382;2024-01-25T14:16:38;6.10;;;3.17;;
10005;SDS011;5042;42.626;23.382;2024-01-25T14:19:05;4.17;;;2.83;;
10005;SDS011;5042;42.626;23.382;2024-01-25T14:21:33;4.97;;;2.80;;
10005;SDS011;5042;42.626;23.382;2024-01-25T14:24:00;7.27;;;2.63;;
10005;SDS011;5042;42.626;23.382;2024-01-25T14:26:27;5.13;;;3.20;;
10005;SDS011;5042;42.626;23.382;2024-01-25T14:28:54;6.00;;;3.20;;
10005;SDS011;5042;42.626;23.382;2024-01-25T14:31:21;5.10;;;2.73;;
10005;SDS011;5042;42.626;23.382;2024-01-25T14:33:48;6.97;;;2.83;;
10005;SDS011;5042;42.626;23.382;2024-01-25T14:36:15;4.17;;;2.70;;
10005;SDS011;5042;42.626;23.382;2024-01-25T14:38:43;4.80;;;2.70;;
10005;SDS011;5042;42.626;23.382;2024-01-25T14:41:10;5.57;;;2.93;;
10005;SDS011;5042;42.626;23.382;2024-01-25T14:43:37;7.80;;;2.90;;